sensor_id;sensor_type;location;lat;lon;timestamp;temperature;humidity
54578;DHT22;40474;49.330;8.130;2022-07-09T00:02:08;20.90;73.90
54578;DHT22;40474;49.330;8.130;2022-07-09T00:04:36;20.90;73.60
54578;DHT22;40474;49.330;8.130;2022-07-09T00:07:03;20.90;74.00
54578;DHT22;40474;49.330;8.130;2022-07-09T00:09:30;20.80;74.90
54578;DHT22;40474;49.330;8.130;2022-07-09T00:11:57;20.90;74.60
54578;DHT22;40474;49.330;8.130;2022-07-09T00:14:25;20.90;74.50
54578;DHT22;40474;49.330;8.130;2022-07-09T00:16:52;20.90;75.00
54578;DHT22;40474;49.330;8.130;2022-07-09T00:19:22;20.90;73.30
54578;DHT22;40474;49.330;8.130;2022-07-09T00:21:48;20.90;74.10
54578;DHT22;40474;49.330;8.130;2022-07-09T00:24:15;20.90;74.40
54578;DHT22;40474;49.330;8.130;2022-07-09T00:26:42;20.90;74.40
54578;DHT22;40474;49.330;8.130;2022-07-09T00:29:09;20.80;74.60
54578;DHT22;40474;49.330;8.130;2022-07-09T00:31:37;20.80;75.30
54578;DHT22;40474;49.330;8.130;2022-07-09T00:34:04;20.70;75.80
54578;DHT22;40474;49.330;8.130;2022-07-09T00:36:32;20.80;75.40
54578;DHT22;40474;49.330;8.130;2022-07-09T00:38:59;20.80;75.10
54578;DHT22;40474;49.330;8.130;2022-07-09T00:41:26;20.70;74.80
54578;DHT22;40474;49.330;8.130;2022-07-09T00:43:59;20.70;75.80
54578;DHT22;40474;49.330;8.130;2022-07-09T00:46:36;20.70;75.00
54578;DHT22;40474;49.330;8.130;2022-07-09T00:49:08;20.70;74.90
54578;DHT22;40474;49.330;8.130;2022-07-09T00:51:34;20.60;74.80
54578;DHT22;40474;49.330;8.130;2022-07-09T00:54:02;20.60;75.90
54578;DHT22;40474;49.330;8.130;2022-07-09T00:56:29;20.60;75.60
54578;DHT22;40474;49.330;8.130;2022-07-09T00:59:02;20.60;76.70
54578;DHT22;40474;49.330;8.130;2022-07-09T01:01:34;20.60;75.70
54578;DHT22;40474;49.330;8.130;2022-07-09T01:06:32;20.60;76.60
54578;DHT22;40474;49.330;8.130;2022-07-09T01:09:02;20.60;76.60
54578;DHT22;40474;49.330;8.130;2022-07-09T01:11:29;20.60;76.00
54578;DHT22;40474;49.330;8.130;2022-07-09T01:13:56;20.60;76.70
54578;DHT22;40474;49.330;8.130;2022-07-09T01:16:30;20.60;76.00
54578;DHT22;40474;49.330;8.130;2022-07-09T01:18:57;20.50;76.50
54578;DHT22;40474;49.330;8.130;2022-07-09T01:21:24;20.50;76.50
54578;DHT22;40474;49.330;8.130;2022-07-09T01:23:51;20.40;77.10
54578;DHT22;40474;49.330;8.130;2022-07-09T01:26:18;20.50;77.20
54578;DHT22;40474;49.330;8.130;2022-07-09T01:28:47;20.40;78.10
54578;DHT22;40474;49.330;8.130;2022-07-09T01:31:14;20.40;77.30
54578;DHT22;40474;49.330;8.130;2022-07-09T01:33:42;20.40;86.20
54578;DHT22;40474;49.330;8.130;2022-07-09T01:36:10;20.30;78.90
54578;DHT22;40474;49.330;8.130;2022-07-09T01:38:36;20.40;78.40
54578;DHT22;40474;49.330;8.130;2022-07-09T01:41:04;20.40;78.20
54578;DHT22;40474;49.330;8.130;2022-07-09T01:43:31;20.40;78.20
54578;DHT22;40474;49.330;8.130;2022-07-09T01:46:00;20.40;78.40
54578;DHT22;40474;49.330;8.130;2022-07-09T01:48:29;20.30;77.80
54578;DHT22;40474;49.330;8.130;2022-07-09T01:50:56;20.20;78.20
54578;DHT22;40474;49.330;8.130;2022-07-09T01:53:25;20.20;79.30
54578;DHT22;40474;49.330;8.130;2022-07-09T01:55:52;20.10;79.20
54578;DHT22;40474;49.330;8.130;2022-07-09T01:58:19;20.10;79.80
54578;DHT22;40474;49.330;8.130;2022-07-09T02:00:45;20.10;78.80
54578;DHT22;40474;49.330;8.130;2022-07-09T02:03:13;20.10;78.70
54578;DHT22;40474;49.330;8.130;2022-07-09T02:05:40;20.10;79.50
54578;DHT22;40474;49.330;8.130;2022-07-09T02:08:09;20.20;79.80
54578;DHT22;40474;49.330;8.130;2022-07-09T02:10:36;20.20;79.90
54578;DHT22;40474;49.330;8.130;2022-07-09T02:13:03;20.20;79.00
54578;DHT22;40474;49.330;8.130;2022-07-09T02:15:30;20.10;79.60
54578;DHT22;40474;49.330;8.130;2022-07-09T02:17:56;19.90;80.50
54578;DHT22;40474;49.330;8.130;2022-07-09T02:20:23;19.80;80.30
54578;DHT22;40474;49.330;8.130;2022-07-09T02:22:50;19.70;81.60
54578;DHT22;40474;49.330;8.130;2022-07-09T02:25:17;19.80;81.30
54578;DHT22;40474;49.330;8.130;2022-07-09T02:27:44;19.80;81.00
54578;DHT22;40474;49.330;8.130;2022-07-09T02:30:11;19.70;80.90
54578;DHT22;40474;49.330;8.130;2022-07-09T02:32:37;19.70;80.70
54578;DHT22;40474;49.330;8.130;2022-07-09T02:35:05;19.80;81.40
54578;DHT22;40474;49.330;8.130;2022-07-09T02:37:32;19.80;80.90
54578;DHT22;40474;49.330;8.130;2022-07-09T02:39:58;19.80;81.70
54578;DHT22;40474;49.330;8.130;2022-07-09T02:42:25;19.80;81.60
54578;DHT22;40474;49.330;8.130;2022-07-09T02:44:52;19.80;81.80
54578;DHT22;40474;49.330;8.130;2022-07-09T02:47:21;19.80;82.30
54578;DHT22;40474;49.330;8.130;2022-07-09T02:49:48;19.80;81.10
54578;DHT22;40474;49.330;8.130;2022-07-09T02:52:15;19.80;80.90
54578;DHT22;40474;49.330;8.130;2022-07-09T02:54:41;19.90;82.00
54578;DHT22;40474;49.330;8.130;2022-07-09T02:57:09;19.80;81.30
54578;DHT22;40474;49.330;8.130;2022-07-09T02:59:36;19.80;81.80
54578;DHT22;40474;49.330;8.130;2022-07-09T03:02:06;19.80;81.40
54578;DHT22;40474;49.330;8.130;2022-07-09T03:04:34;19.80;81.90
54578;DHT22;40474;49.330;8.130;2022-07-09T03:07:01;19.60;82.30
54578;DHT22;40474;49.330;8.130;2022-07-09T03:09:29;19.50;83.40
54578;DHT22;40474;49.330;8.130;2022-07-09T03:11:56;19.40;82.70
54578;DHT22;40474;49.330;8.130;2022-07-09T03:14:23;19.40;83.00
54578;DHT22;40474;49.330;8.130;2022-07-09T03:16:50;19.40;83.60
54578;DHT22;40474;49.330;8.130;2022-07-09T03:19:17;19.30;83.70
54578;DHT22;40474;49.330;8.130;2022-07-09T03:21:45;19.30;83.90
54578;DHT22;40474;49.330;8.130;2022-07-09T03:24:13;19.20;84.30
54578;DHT22;40474;49.330;8.130;2022-07-09T03:26:40;19.20;84.40
54578;DHT22;40474;49.330;8.130;2022-07-09T03:29:08;19.10;85.10
54578;DHT22;40474;49.330;8.130;2022-07-09T03:31:35;19.10;84.50
54578;DHT22;40474;49.330;8.130;2022-07-09T03:34:02;19.20;85.20
54578;DHT22;40474;49.330;8.130;2022-07-09T03:36:29;19.10;85.00
54578;DHT22;40474;49.330;8.130;2022-07-09T03:39:01;19.10;85.60
54578;DHT22;40474;49.330;8.130;2022-07-09T03:41:28;19.20;85.70
54578;DHT22;40474;49.330;8.130;2022-07-09T03:43:55;19.20;85.00
54578;DHT22;40474;49.330;8.130;2022-07-09T03:46:22;19.20;84.80
54578;DHT22;40474;49.330;8.130;2022-07-09T03:48:50;19.20;85.10
54578;DHT22;40474;49.330;8.130;2022-07-09T03:51:18;19.30;85.20
54578;DHT22;40474;49.330;8.130;2022-07-09T03:53:45;19.30;85.20
54578;DHT22;40474;49.330;8.130;2022-07-09T03:56:12;19.20;85.50
54578;DHT22;40474;49.330;8.130;2022-07-09T03:58:39;19.20;85.30
54578;DHT22;40474;49.330;8.130;2022-07-09T04:01:06;19.30;85.50
54578;DHT22;40474;49.330;8.130;2022-07-09T04:03:35;19.30;84.10
54578;DHT22;40474;49.330;8.130;2022-07-09T04:06:03;19.30;84.90
54578;DHT22;40474;49.330;8.130;2022-07-09T04:08:30;19.30;85.20
54578;DHT22;40474;49.330;8.130;2022-07-09T04:11:04;19.30;85.40
54578;DHT22;40474;49.330;8.130;2022-07-09T04:13:30;19.30;85.80
54578;DHT22;40474;49.330;8.130;2022-07-09T04:15:58;19.30;86.00
54578;DHT22;40474;49.330;8.130;2022-07-09T04:18:25;19.30;85.80
54578;DHT22;40474;49.330;8.130;2022-07-09T04:20:53;19.30;86.00
54578;DHT22;40474;49.330;8.130;2022-07-09T04:23:21;19.20;86.00
54578;DHT22;40474;49.330;8.130;2022-07-09T04:25:47;19.30;86.00
54578;DHT22;40474;49.330;8.130;2022-07-09T04:28:18;19.30;85.90
54578;DHT22;40474;49.330;8.130;2022-07-09T04:30:46;19.30;86.10
54578;DHT22;40474;49.330;8.130;2022-07-09T04:33:14;19.40;86.20
54578;DHT22;40474;49.330;8.130;2022-07-09T04:35:41;19.30;86.30
54578;DHT22;40474;49.330;8.130;2022-07-09T04:38:13;19.30;86.70
54578;DHT22;40474;49.330;8.130;2022-07-09T04:40:40;19.30;87.30
54578;DHT22;40474;49.330;8.130;2022-07-09T04:43:07;19.30;88.00
54578;DHT22;40474;49.330;8.130;2022-07-09T04:45:34;19.20;88.30
54578;DHT22;40474;49.330;8.130;2022-07-09T04:48:01;19.30;88.80
54578;DHT22;40474;49.330;8.130;2022-07-09T04:50:28;19.30;88.90
54578;DHT22;40474;49.330;8.130;2022-07-09T04:52:57;19.40;88.40
54578;DHT22;40474;49.330;8.130;2022-07-09T04:55:24;19.40;88.70
54578;DHT22;40474;49.330;8.130;2022-07-09T04:57:52;19.40;88.10
54578;DHT22;40474;49.330;8.130;2022-07-09T05:00:18;19.60;87.60
54578;DHT22;40474;49.330;8.130;2022-07-09T05:02:45;19.70;87.80
54578;DHT22;40474;49.330;8.130;2022-07-09T05:05:12;19.80;87.30
54578;DHT22;40474;49.330;8.130;2022-07-09T05:07:48;20.00;86.80
54578;DHT22;40474;49.330;8.130;2022-07-09T05:10:16;20.00;86.50
54578;DHT22;40474;49.330;8.130;2022-07-09T05:12:45;20.10;85.70
54578;DHT22;40474;49.330;8.130;2022-07-09T05:15:16;20.30;84.90
54578;DHT22;40474;49.330;8.130;2022-07-09T05:17:43;20.40;84.20
54578;DHT22;40474;49.330;8.130;2022-07-09T05:20:13;20.50;83.30
54578;DHT22;40474;49.330;8.130;2022-07-09T05:22:40;20.60;82.60
54578;DHT22;40474;49.330;8.130;2022-07-09T05:25:07;20.60;82.10
54578;DHT22;40474;49.330;8.130;2022-07-09T05:27:44;20.70;81.50
54578;DHT22;40474;49.330;8.130;2022-07-09T05:30:12;20.80;81.60
54578;DHT22;40474;49.330;8.130;2022-07-09T05:32:45;20.90;81.10
54578;DHT22;40474;49.330;8.130;2022-07-09T05:35:15;20.90;80.50
54578;DHT22;40474;49.330;8.130;2022-07-09T05:37:44;21.00;80.30
54578;DHT22;40474;49.330;8.130;2022-07-09T05:40:19;21.20;79.70
54578;DHT22;40474;49.330;8.130;2022-07-09T05:42:46;21.30;78.80
54578;DHT22;40474;49.330;8.130;2022-07-09T05:45:13;21.40;78.40
54578;DHT22;40474;49.330;8.130;2022-07-09T05:47:40;21.50;77.50
54578;DHT22;40474;49.330;8.130;2022-07-09T05:50:09;21.60;77.30
54578;DHT22;40474;49.330;8.130;2022-07-09T05:52:36;21.60;76.40
54578;DHT22;40474;49.330;8.130;2022-07-09T05:55:03;21.70;77.20
54578;DHT22;40474;49.330;8.130;2022-07-09T05:57:36;21.90;76.20
54578;DHT22;40474;49.330;8.130;2022-07-09T06:00:03;22.10;76.40
54578;DHT22;40474;49.330;8.130;2022-07-09T06:02:30;22.50;75.70
54578;DHT22;40474;49.330;8.130;2022-07-09T06:04:57;22.90;74.10
54578;DHT22;40474;49.330;8.130;2022-07-09T06:07:24;23.70;70.90
54578;DHT22;40474;49.330;8.130;2022-07-09T06:09:57;24.70;68.80
54578;DHT22;40474;49.330;8.130;2022-07-09T06:12:24;25.70;64.20
54578;DHT22;40474;49.330;8.130;2022-07-09T06:14:52;26.50;59.70
54578;DHT22;40474;49.330;8.130;2022-07-09T06:17:18;27.30;58.30
54578;DHT22;40474;49.330;8.130;2022-07-09T06:19:46;27.90;55.40
54578;DHT22;40474;49.330;8.130;2022-07-09T06:22:13;28.10;53.10
54578;DHT22;40474;49.330;8.130;2022-07-09T06:24:39;28.60;53.40
54578;DHT22;40474;49.330;8.130;2022-07-09T06:27:06;28.80;49.60
54578;DHT22;40474;49.330;8.130;2022-07-09T06:29:33;29.50;49.20
54578;DHT22;40474;49.330;8.130;2022-07-09T06:31:59;29.80;47.30
54578;DHT22;40474;49.330;8.130;2022-07-09T06:34:27;29.70;47.70
54578;DHT22;40474;49.330;8.130;2022-07-09T06:36:54;29.80;47.60
54578;DHT22;40474;49.330;8.130;2022-07-09T06:39:21;29.70;46.30
54578;DHT22;40474;49.330;8.130;2022-07-09T06:42:06;29.80;46.60
54578;DHT22;40474;49.330;8.130;2022-07-09T06:44:34;30.40;44.80
54578;DHT22;40474;49.330;8.130;2022-07-09T06:47:00;31.10;45.10
54578;DHT22;40474;49.330;8.130;2022-07-09T06:49:27;31.20;44.20
54578;DHT22;40474;49.330;8.130;2022-07-09T06:51:54;31.10;43.90
54578;DHT22;40474;49.330;8.130;2022-07-09T06:54:21;31.50;43.50
54578;DHT22;40474;49.330;8.130;2022-07-09T06:56:48;31.80;42.90
54578;DHT22;40474;49.330;8.130;2022-07-09T06:59:16;32.00;41.80
54578;DHT22;40474;49.330;8.130;2022-07-09T07:01:45;31.70;42.40
54578;DHT22;40474;49.330;8.130;2022-07-09T07:04:12;31.70;41.80
54578;DHT22;40474;49.330;8.130;2022-07-09T07:06:41;31.80;42.20
54578;DHT22;40474;49.330;8.130;2022-07-09T07:09:08;31.70;41.80
54578;DHT22;40474;49.330;8.130;2022-07-09T07:11:35;31.90;41.60
54578;DHT22;40474;49.330;8.130;2022-07-09T07:14:08;32.50;41.10
54578;DHT22;40474;49.330;8.130;2022-07-09T07:16:35;32.50;41.30
54578;DHT22;40474;49.330;8.130;2022-07-09T07:19:06;33.30;40.50
54578;DHT22;40474;49.330;8.130;2022-07-09T07:21:32;33.30;39.50
54578;DHT22;40474;49.330;8.130;2022-07-09T07:23:59;33.10;39.20
54578;DHT22;40474;49.330;8.130;2022-07-09T07:26:27;33.70;39.00
54578;DHT22;40474;49.330;8.130;2022-07-09T07:28:54;34.10;38.60
54578;DHT22;40474;49.330;8.130;2022-07-09T07:31:21;34.90;38.20
54578;DHT22;40474;49.330;8.130;2022-07-09T07:33:49;34.50;37.30
54578;DHT22;40474;49.330;8.130;2022-07-09T07:36:17;34.40;37.20
54578;DHT22;40474;49.330;8.130;2022-07-09T07:38:44;33.90;38.20
54578;DHT22;40474;49.330;8.130;2022-07-09T07:41:15;34.00;38.40
54578;DHT22;40474;49.330;8.130;2022-07-09T07:43:43;34.40;38.30
54578;DHT22;40474;49.330;8.130;2022-07-09T07:46:10;34.30;37.60
54578;DHT22;40474;49.330;8.130;2022-07-09T07:48:37;34.70;36.90
54578;DHT22;40474;49.330;8.130;2022-07-09T07:51:04;35.10;36.90
54578;DHT22;40474;49.330;8.130;2022-07-09T07:53:31;35.40;37.50
54578;DHT22;40474;49.330;8.130;2022-07-09T07:56:08;35.90;36.00
54578;DHT22;40474;49.330;8.130;2022-07-09T07:58:34;36.20;35.40
54578;DHT22;40474;49.330;8.130;2022-07-09T08:01:03;37.00;35.00
54578;DHT22;40474;49.330;8.130;2022-07-09T08:03:29;37.30;34.40
54578;DHT22;40474;49.330;8.130;2022-07-09T08:05:59;36.70;34.90
54578;DHT22;40474;49.330;8.130;2022-07-09T08:08:25;36.30;34.90
54578;DHT22;40474;49.330;8.130;2022-07-09T08:10:52;36.00;34.50
54578;DHT22;40474;49.330;8.130;2022-07-09T08:13:19;36.10;35.60
54578;DHT22;40474;49.330;8.130;2022-07-09T08:15:46;36.00;35.20
54578;DHT22;40474;49.330;8.130;2022-07-09T08:18:13;36.20;35.30
54578;DHT22;40474;49.330;8.130;2022-07-09T08:20:41;35.20;35.70
54578;DHT22;40474;49.330;8.130;2022-07-09T08:23:09;35.10;36.80
54578;DHT22;40474;49.330;8.130;2022-07-09T08:25:35;35.20;36.10
54578;DHT22;40474;49.330;8.130;2022-07-09T08:28:02;36.00;35.50
54578;DHT22;40474;49.330;8.130;2022-07-09T08:30:33;36.00;34.80
54578;DHT22;40474;49.330;8.130;2022-07-09T08:33:00;34.80;36.20
54578;DHT22;40474;49.330;8.130;2022-07-09T08:35:31;33.10;38.40
54578;DHT22;40474;49.330;8.130;2022-07-09T08:37:57;31.90;39.90
54578;DHT22;40474;49.330;8.130;2022-07-09T08:40:27;31.00;41.10
54578;DHT22;40474;49.330;8.130;2022-07-09T08:42:54;30.20;42.70
54578;DHT22;40474;49.330;8.130;2022-07-09T08:45:21;30.70;41.40
54578;DHT22;40474;49.330;8.130;2022-07-09T08:47:49;31.90;41.00
54578;DHT22;40474;49.330;8.130;2022-07-09T08:50:17;33.60;38.90
54578;DHT22;40474;49.330;8.130;2022-07-09T08:52:44;34.10;36.70
54578;DHT22;40474;49.330;8.130;2022-07-09T08:55:11;32.90;38.20
54578;DHT22;40474;49.330;8.130;2022-07-09T08:57:38;31.60;39.50
54578;DHT22;40474;49.330;8.130;2022-07-09T09:00:05;30.60;41.20
54578;DHT22;40474;49.330;8.130;2022-07-09T09:02:35;29.70;42.60
54578;DHT22;40474;49.330;8.130;2022-07-09T09:05:12;29.30;44.40
54578;DHT22;40474;49.330;8.130;2022-07-09T09:07:39;28.90;44.90
54578;DHT22;40474;49.330;8.130;2022-07-09T09:10:06;29.80;44.30
54578;DHT22;40474;49.330;8.130;2022-07-09T09:12:33;30.50;43.50
54578;DHT22;40474;49.330;8.130;2022-07-09T09:15:03;31.50;42.20
54578;DHT22;40474;49.330;8.130;2022-07-09T09:17:30;32.90;40.80
54578;DHT22;40474;49.330;8.130;2022-07-09T09:19:57;33.00;38.80
54578;DHT22;40474;49.330;8.130;2022-07-09T09:22:23;32.60;39.50
54578;DHT22;40474;49.330;8.130;2022-07-09T09:24:50;31.60;39.40
54578;DHT22;40474;49.330;8.130;2022-07-09T09:27:17;30.50;41.50
54578;DHT22;40474;49.330;8.130;2022-07-09T09:29:51;29.50;43.40
54578;DHT22;40474;49.330;8.130;2022-07-09T09:32:19;30.50;43.20
54578;DHT22;40474;49.330;8.130;2022-07-09T09:34:48;31.40;42.00
54578;DHT22;40474;49.330;8.130;2022-07-09T09:37:24;31.10;41.80
54578;DHT22;40474;49.330;8.130;2022-07-09T09:39:51;31.20;42.50
54578;DHT22;40474;49.330;8.130;2022-07-09T09:42:23;31.00;41.90
54578;DHT22;40474;49.330;8.130;2022-07-09T09:44:50;31.00;42.10
54578;DHT22;40474;49.330;8.130;2022-07-09T09:47:19;32.40;39.80
54578;DHT22;40474;49.330;8.130;2022-07-09T09:49:46;34.10;37.20
54578;DHT22;40474;49.330;8.130;2022-07-09T09:52:14;35.20;34.70
54578;DHT22;40474;49.330;8.130;2022-07-09T09:54:41;35.60;35.00
54578;DHT22;40474;49.330;8.130;2022-07-09T09:57:13;35.40;35.70
54578;DHT22;40474;49.330;8.130;2022-07-09T09:59:41;36.30;35.10
54578;DHT22;40474;49.330;8.130;2022-07-09T10:02:09;36.70;34.10
54578;DHT22;40474;49.330;8.130;2022-07-09T10:04:36;37.10;33.50
54578;DHT22;40474;49.330;8.130;2022-07-09T10:07:06;36.80;33.10
54578;DHT22;40474;49.330;8.130;2022-07-09T10:09:33;36.80;32.70
54578;DHT22;40474;49.330;8.130;2022-07-09T10:12:00;37.00;32.10
54578;DHT22;40474;49.330;8.130;2022-07-09T10:16:54;37.00;31.70
54578;DHT22;40474;49.330;8.130;2022-07-09T10:19:30;35.00;32.70
54578;DHT22;40474;49.330;8.130;2022-07-09T10:21:59;33.20;35.40
54578;DHT22;40474;49.330;8.130;2022-07-09T10:24:27;31.80;39.00
54578;DHT22;40474;49.330;8.130;2022-07-09T10:27:04;30.80;40.20
54578;DHT22;40474;49.330;8.130;2022-07-09T10:29:33;30.10;41.50
54578;DHT22;40474;49.330;8.130;2022-07-09T10:32:00;29.50;43.10
54578;DHT22;40474;49.330;8.130;2022-07-09T10:39:25;29.00;43.90
54578;DHT22;40474;49.330;8.130;2022-07-09T10:42:00;30.50;41.10
54578;DHT22;40474;49.330;8.130;2022-07-09T10:44:36;32.10;37.90
54578;DHT22;40474;49.330;8.130;2022-07-09T10:47:04;34.00;36.30
54578;DHT22;40474;49.330;8.130;2022-07-09T10:49:35;34.20;34.50
54578;DHT22;40474;49.330;8.130;2022-07-09T10:52:03;33.10;35.10
54578;DHT22;40474;49.330;8.130;2022-07-09T10:54:33;31.60;37.00
54578;DHT22;40474;49.330;8.130;2022-07-09T10:56:59;30.80;39.90
54578;DHT22;40474;49.330;8.130;2022-07-09T10:59:26;30.10;40.30
54578;DHT22;40474;49.330;8.130;2022-07-09T11:01:53;30.30;41.80
54578;DHT22;40474;49.330;8.130;2022-07-09T11:06:57;30.10;40.80
54578;DHT22;40474;49.330;8.130;2022-07-09T11:09:25;31.50;40.20
54578;DHT22;40474;49.330;8.130;2022-07-09T11:11:52;33.00;38.90
54578;DHT22;40474;49.330;8.130;2022-07-09T11:14:19;34.30;35.80
54578;DHT22;40474;49.330;8.130;2022-07-09T11:16:53;35.00;34.90
54578;DHT22;40474;49.330;8.130;2022-07-09T11:19:20;35.60;34.80
54578;DHT22;40474;49.330;8.130;2022-07-09T11:21:49;35.50;34.40
54578;DHT22;40474;49.330;8.130;2022-07-09T11:24:17;35.50;33.40
54578;DHT22;40474;49.330;8.130;2022-07-09T11:26:45;34.40;35.60
54578;DHT22;40474;49.330;8.130;2022-07-09T11:29:13;33.30;36.10
54578;DHT22;40474;49.330;8.130;2022-07-09T11:31:47;32.40;36.50
54578;DHT22;40474;49.330;8.130;2022-07-09T11:34:15;33.10;38.50
54578;DHT22;40474;49.330;8.130;2022-07-09T11:36:43;34.10;36.80
54578;DHT22;40474;49.330;8.130;2022-07-09T11:39:09;34.50;35.60
54578;DHT22;40474;49.330;8.130;2022-07-09T11:41:47;34.00;35.90
54578;DHT22;40474;49.330;8.130;2022-07-09T11:44:20;33.20;35.60
54578;DHT22;40474;49.330;8.130;2022-07-09T11:47:00;32.40;36.90
54578;DHT22;40474;49.330;8.130;2022-07-09T11:52:03;31.90;37.80
54578;DHT22;40474;49.330;8.130;2022-07-09T11:54:30;31.60;39.10
54578;DHT22;40474;49.330;8.130;2022-07-09T11:56:57;31.10;40.20
54578;DHT22;40474;49.330;8.130;2022-07-09T11:59:28;30.60;39.10
54578;DHT22;40474;49.330;8.130;2022-07-09T12:01:58;30.10;41.30
54578;DHT22;40474;49.330;8.130;2022-07-09T12:04:27;29.90;42.00
54578;DHT22;40474;49.330;8.130;2022-07-09T12:06:54;29.30;42.20
54578;DHT22;40474;49.330;8.130;2022-07-09T12:09:30;29.20;42.50
54578;DHT22;40474;49.330;8.130;2022-07-09T12:11:58;29.00;44.10
54578;DHT22;40474;49.330;8.130;2022-07-09T12:14:25;29.90;41.30
54578;DHT22;40474;49.330;8.130;2022-07-09T12:16:52;31.00;40.90
54578;DHT22;40474;49.330;8.130;2022-07-09T12:19:20;31.70;39.00
54578;DHT22;40474;49.330;8.130;2022-07-09T12:21:46;32.00;39.50
54578;DHT22;40474;49.330;8.130;2022-07-09T12:24:15;31.90;38.50
54578;DHT22;40474;49.330;8.130;2022-07-09T12:26:43;32.00;39.90
54578;DHT22;40474;49.330;8.130;2022-07-09T12:29:30;32.20;39.50
54578;DHT22;40474;49.330;8.130;2022-07-09T12:31:56;33.40;37.10
54578;DHT22;40474;49.330;8.130;2022-07-09T12:34:23;33.30;38.30
54578;DHT22;40474;49.330;8.130;2022-07-09T12:36:53;33.40;37.20
54578;DHT22;40474;49.330;8.130;2022-07-09T12:39:25;34.30;36.30
54578;DHT22;40474;49.330;8.130;2022-07-09T12:41:52;34.70;36.10
54578;DHT22;40474;49.330;8.130;2022-07-09T12:44:22;34.40;33.90
54578;DHT22;40474;49.330;8.130;2022-07-09T12:46:52;33.60;33.80
54578;DHT22;40474;49.330;8.130;2022-07-09T12:49:19;33.00;35.40
54578;DHT22;40474;49.330;8.130;2022-07-09T12:51:46;32.70;38.20
54578;DHT22;40474;49.330;8.130;2022-07-09T12:54:12;32.10;38.50
54578;DHT22;40474;49.330;8.130;2022-07-09T12:56:39;31.30;40.10
54578;DHT22;40474;49.330;8.130;2022-07-09T12:59:27;30.80;39.80
54578;DHT22;40474;49.330;8.130;2022-07-09T13:01:53;30.40;41.10
54578;DHT22;40474;49.330;8.130;2022-07-09T13:04:20;30.10;41.70
54578;DHT22;40474;49.330;8.130;2022-07-09T13:06:47;30.40;41.30
54578;DHT22;40474;49.330;8.130;2022-07-09T13:09:13;31.50;40.90
54578;DHT22;40474;49.330;8.130;2022-07-09T13:11:40;32.40;38.20
54578;DHT22;40474;49.330;8.130;2022-07-09T13:14:07;32.90;37.40
54578;DHT22;40474;49.330;8.130;2022-07-09T13:16:37;33.10;36.80
54578;DHT22;40474;49.330;8.130;2022-07-09T13:19:04;33.30;36.20
54578;DHT22;40474;49.330;8.130;2022-07-09T13:21:31;33.90;36.70
54578;DHT22;40474;49.330;8.130;2022-07-09T13:23:58;33.80;35.50
54578;DHT22;40474;49.330;8.130;2022-07-09T13:26:25;33.10;36.00
54578;DHT22;40474;49.330;8.130;2022-07-09T13:28:51;32.50;38.50
54578;DHT22;40474;49.330;8.130;2022-07-09T13:31:18;31.80;39.20
54578;DHT22;40474;49.330;8.130;2022-07-09T13:33:47;31.00;38.80
54578;DHT22;40474;49.330;8.130;2022-07-09T13:36:14;30.50;41.50
54578;DHT22;40474;49.330;8.130;2022-07-09T13:38:41;30.10;40.80
54578;DHT22;40474;49.330;8.130;2022-07-09T13:41:07;29.70;41.60
54578;DHT22;40474;49.330;8.130;2022-07-09T13:43:34;29.30;41.30
54578;DHT22;40474;49.330;8.130;2022-07-09T13:46:02;29.40;44.60
54578;DHT22;40474;49.330;8.130;2022-07-09T13:48:30;29.50;43.00
54578;DHT22;40474;49.330;8.130;2022-07-09T13:50:58;29.40;43.60
54578;DHT22;40474;49.330;8.130;2022-07-09T13:53:26;29.40;42.30
54578;DHT22;40474;49.330;8.130;2022-07-09T13:55:55;29.50;43.40
54578;DHT22;40474;49.330;8.130;2022-07-09T13:58:22;29.40;42.30
54578;DHT22;40474;49.330;8.130;2022-07-09T14:00:48;29.50;40.50
54578;DHT22;40474;49.330;8.130;2022-07-09T14:03:15;29.70;40.30
54578;DHT22;40474;49.330;8.130;2022-07-09T14:05:43;29.50;42.70
54578;DHT22;40474;49.330;8.130;2022-07-09T14:08:10;29.30;43.30
54578;DHT22;40474;49.330;8.130;2022-07-09T14:10:40;29.20;42.80
54578;DHT22;40474;49.330;8.130;2022-07-09T14:13:07;29.30;43.50
54578;DHT22;40474;49.330;8.130;2022-07-09T14:15:33;29.50;40.80
54578;DHT22;40474;49.330;8.130;2022-07-09T14:18:00;29.40;39.70
54578;DHT22;40474;49.330;8.130;2022-07-09T14:20:27;29.60;41.40
54578;DHT22;40474;49.330;8.130;2022-07-09T14:22:54;29.70;40.00
54578;DHT22;40474;49.330;8.130;2022-07-09T14:25:21;29.70;40.10
54578;DHT22;40474;49.330;8.130;2022-07-09T14:27:48;29.60;40.70
54578;DHT22;40474;49.330;8.130;2022-07-09T14:30:15;29.40;40.70
54578;DHT22;40474;49.330;8.130;2022-07-09T14:32:41;29.10;43.20
54578;DHT22;40474;49.330;8.130;2022-07-09T14:35:08;28.80;40.60
54578;DHT22;40474;49.330;8.130;2022-07-09T14:37:35;28.50;41.00
54578;DHT22;40474;49.330;8.130;2022-07-09T14:40:02;28.50;44.40
54578;DHT22;40474;49.330;8.130;2022-07-09T14:42:29;28.50;44.70
54578;DHT22;40474;49.330;8.130;2022-07-09T14:44:56;28.50;42.30
54578;DHT22;40474;49.330;8.130;2022-07-09T14:47:23;28.60;44.70
54578;DHT22;40474;49.330;8.130;2022-07-09T14:49:49;28.70;41.20
54578;DHT22;40474;49.330;8.130;2022-07-09T14:52:16;28.70;42.50
54578;DHT22;40474;49.330;8.130;2022-07-09T14:54:43;28.70;42.70
54578;DHT22;40474;49.330;8.130;2022-07-09T14:57:10;28.80;41.70
54578;DHT22;40474;49.330;8.130;2022-07-09T14:59:37;28.80;43.40
54578;DHT22;40474;49.330;8.130;2022-07-09T15:02:08;28.90;42.80
54578;DHT22;40474;49.330;8.130;2022-07-09T15:04:35;28.70;41.30
54578;DHT22;40474;49.330;8.130;2022-07-09T15:07:02;28.70;42.30
54578;DHT22;40474;49.330;8.130;2022-07-09T15:09:30;28.80;42.20
54578;DHT22;40474;49.330;8.130;2022-07-09T15:11:56;28.80;44.20
54578;DHT22;40474;49.330;8.130;2022-07-09T15:14:23;28.80;43.80
54578;DHT22;40474;49.330;8.130;2022-07-09T15:16:50;28.80;42.50
54578;DHT22;40474;49.330;8.130;2022-07-09T15:19:17;28.90;44.10
54578;DHT22;40474;49.330;8.130;2022-07-09T15:21:44;28.90;43.70
54578;DHT22;40474;49.330;8.130;2022-07-09T15:24:11;28.90;42.90
54578;DHT22;40474;49.330;8.130;2022-07-09T15:26:38;28.80;41.30
54578;DHT22;40474;49.330;8.130;2022-07-09T15:29:05;28.70;42.30
54578;DHT22;40474;49.330;8.130;2022-07-09T15:31:32;28.60;41.80
54578;DHT22;40474;49.330;8.130;2022-07-09T15:33:59;28.50;43.30
54578;DHT22;40474;49.330;8.130;2022-07-09T15:36:28;28.50;44.90
54578;DHT22;40474;49.330;8.130;2022-07-09T15:38:54;28.50;44.30
54578;DHT22;40474;49.330;8.130;2022-07-09T15:41:21;28.30;44.30
54578;DHT22;40474;49.330;8.130;2022-07-09T15:43:48;28.20;42.50
54578;DHT22;40474;49.330;8.130;2022-07-09T15:46:15;28.20;44.50
54578;DHT22;40474;49.330;8.130;2022-07-09T15:48:41;28.10;43.10
54578;DHT22;40474;49.330;8.130;2022-07-09T15:51:08;28.20;44.40